Aviation Digital Data Service (ADDS)

Output produced by METARs form (0738 UTC 24 May 2018)
found at http://www.aviationweather.gov/adds/metars/
 
TAF MHLC 240425Z 2406/2506 00000KT 9999 SCT025 SCT080 TX32/2417Z TN22/2412Z 
     BECMG 2415/2417 34006KT SCT026TCU 
     TEMPO 2420/2502 5000 TSSHRA SCT022CB BKN080 
     BECMG 2502/2504 00000KT 9999 FEW024CB BKN080
       
TAF MHLM 240425Z 2406/2506 24003KT 9999 FEW025 BKN080 TX34/2420Z TN24/2412Z 
     BECMG 2418/2419 01010KT SCT028TCU 
     TEMPO 2422/2502 6000 TSRA SCT028CB BKN080 
     BECMG 2502/2504 00000KT 9999 NSW FEW026CB BKN090
       
TAF MHRO 240425Z 2406/2506 12008KT 9999 FEW022 TX32/2418Z TN26/2412Z 
     BECMG 2415/2416 24010KT SCT025TCU 
     PROB30 
     TEMPO 2422/2424 6000 TSSHRA SCT024CB SCT080
       
TAF AMD MHSC 240119Z 2401/2503 36009KT 9000 -SHRA VCTS SCT040CB BKN100 QNH2987INS 
     BECMG 2408/2409 VRB06KT 9999 NSW SCT030 QNH2985INS 
     BECMG 2419/2420 VRB12G20KT 8000 -TSRA BKN030CB QNH2984INS TX32/2401Z TN21/2413Z LAST NO AMDS AFT 2401 NEXT 2513
       
TAF MHTG 240425Z 2406/2506 00000KT 6000 VCSH FEW008 SCT026 BKN080 TX29/2419Z TN18/2412Z 
     BECMG 2414/2416 9999 NSW SCT028 SCT090 
     BECMG 2417/2419 20006KT FEW028CB SCT030TCU 
     TEMPO 2420/2502 6000 TSRA SCT028CB BKN080 
     BECMG 2502/2506 00000KT 8000 -RA FEW012 SCT026 BKN080
       
TAF AMD MHSC 240119Z 2401/2503 36009KT 9000 -SHRA VCTS SCT040CB BKN100 QNH2987INS 
     BECMG 2408/2409 VRB06KT 9999 NSW SCT030 QNH2985INS 
     BECMG 2419/2420 VRB12G20KT 8000 -TSRA BKN030CB QNH2984INS TX32/2401Z TN21/2413Z LAST NO AMDS AFT 2401 NEXT 2513
       
TAF MHLC 240425Z 2406/2506 00000KT 9999 SCT025 SCT080 TX32/2417Z TN22/2412Z 
     BECMG 2415/2417 34006KT SCT026TCU 
     TEMPO 2420/2502 5000 TSSHRA SCT022CB BKN080 
     BECMG 2502/2504 00000KT 9999 FEW024CB BKN080
       
TAF MHLM 240425Z 2406/2506 24003KT 9999 FEW025 BKN080 TX34/2420Z TN24/2412Z 
     BECMG 2418/2419 01010KT SCT028TCU 
     TEMPO 2422/2502 6000 TSRA SCT028CB BKN080 
     BECMG 2502/2504 00000KT 9999 NSW FEW026CB BKN090
       
TAF MHRO 240425Z 2406/2506 12008KT 9999 FEW022 TX32/2418Z TN26/2412Z 
     BECMG 2415/2416 24010KT SCT025TCU 
     PROB30 
     TEMPO 2422/2424 6000 TSSHRA SCT024CB SCT080
       
TAF AMD MHSC 240119Z 2401/2503 36009KT 9000 -SHRA VCTS SCT040CB BKN100 QNH2987INS 
     BECMG 2408/2409 VRB06KT 9999 NSW SCT030 QNH2985INS 
     BECMG 2419/2420 VRB12G20KT 8000 -TSRA BKN030CB QNH2984INS TX32/2401Z TN21/2413Z LAST NO AMDS AFT 2401 NEXT 2513
       
TAF MHTG 240425Z 2406/2506 00000KT 6000 VCSH FEW008 SCT026 BKN080 TX29/2419Z TN18/2412Z 
     BECMG 2414/2416 9999 NSW SCT028 SCT090 
     BECMG 2417/2419 20006KT FEW028CB SCT030TCU 
     TEMPO 2420/2502 6000 TSRA SCT028CB BKN080 
     BECMG 2502/2506 00000KT 8000 -RA FEW012 SCT026 BKN080
       
TAF MHLC 240425Z 2406/2506 00000KT 9999 SCT025 SCT080 TX32/2417Z TN22/2412Z 
     BECMG 2415/2417 34006KT SCT026TCU 
     TEMPO 2420/2502 5000 TSSHRA SCT022CB BKN080 
     BECMG 2502/2504 00000KT 9999 FEW024CB BKN080
       
TAF MHLM 240425Z 2406/2506 24003KT 9999 FEW025 BKN080 TX34/2420Z TN24/2412Z 
     BECMG 2418/2419 01010KT SCT028TCU 
     TEMPO 2422/2502 6000 TSRA SCT028CB BKN080 
     BECMG 2502/2504 00000KT 9999 NSW FEW026CB BKN090
       
TAF MHRO 240425Z 2406/2506 12008KT 9999 FEW022 TX32/2418Z TN26/2412Z 
     BECMG 2415/2416 24010KT SCT025TCU 
     PROB30 
     TEMPO 2422/2424 6000 TSSHRA SCT024CB SCT080
       
TAF MHTG 240425Z 2406/2506 00000KT 6000 VCSH FEW008 SCT026 BKN080 TX29/2419Z TN18/2412Z 
     BECMG 2414/2416 9999 NSW SCT028 SCT090 
     BECMG 2417/2419 20006KT FEW028CB SCT030TCU 
     TEMPO 2420/2502 6000 TSRA SCT028CB BKN080 
     BECMG 2502/2506 00000KT 8000 -RA FEW012 SCT026 BKN080